Weather at Saskatoon John G. Diefenbaker International Airport

Public forecast

Using degrees Celsius for public forecast. Weather courtesy of forecast.io.

Current aviation weather report (METAR) for Saskatoon John G. Diefenbaker International Airport

Retrieved 2021/11/29 09:00 UTC (58 seconds ago):

CYXE 290900Z 23006KT 15SM BKN230 M02/M04 A2974 RMK CI5 SLP101

Aviation forecast (TAF) for Saskatoon John G. Diefenbaker International Airport

Retrieved 2021/11/29 06:40 UTC (2 hours ago):

TAF CYXE 290538Z 2906/3006 21006KT P6SM SCT080 BKN150 FM290700 28008KT P6SM BKN080 BKN150 TEMPO 2907/2910 6SM -SHSN PROB30 2907/2909 P6SM -FZRA FM291000 28010KT P6SM FEW080 SCT150 FM291800 28010KT P6SM SCT070 TEMPO 2918/2924 BKN070 FM300000 29010KT P6SM FEW070 RMK NXT FCST BY 291200Z